createdAt,value
2023-01-04T00:02:13.963Z,73.65
2023-01-04T00:04:42.385Z,73.73
2023-01-04T00:07:11.331Z,73.72
2023-01-04T00:09:39.889Z,73.82
2023-01-04T00:12:08.740Z,73.76
2023-01-04T00:14:37.159Z,73.63
2023-01-04T00:17:06.870Z,73.77
2023-01-04T00:19:36.149Z,73.73
2023-01-04T00:22:04.846Z,73.68
2023-01-04T00:24:33.228Z,74.00
2023-01-04T00:27:01.724Z,74.18
2023-01-04T00:29:30.744Z,74.38
2023-01-04T00:31:59.556Z,74.33
2023-01-04T00:34:29.534Z,74.17
2023-01-04T00:36:58.366Z,74.25
2023-01-04T00:39:26.928Z,74.18
2023-01-04T00:42:05.534Z,74.07
2023-01-04T00:44:35.465Z,74.24
2023-01-04T00:47:06.008Z,74.39
2023-01-04T00:49:35.912Z,74.67
2023-01-04T00:52:05.111Z,74.73
2023-01-04T00:54:33.523Z,74.82
2023-01-04T00:57:03.047Z,74.73
2023-01-04T00:59:31.708Z,74.97
2023-01-04T01:02:00.617Z,75.05
2023-01-04T01:04:29.675Z,74.88
2023-01-04T01:06:59.570Z,74.82
2023-01-04T01:09:28.918Z,74.90
2023-01-04T01:11:57.317Z,74.83
2023-01-04T01:14:26.880Z,74.89
2023-01-04T01:16:58.062Z,74.96
2023-01-04T01:19:29.029Z,75.00
2023-01-04T01:22:00.002Z,74.97
2023-01-04T01:24:28.847Z,74.94
2023-01-04T01:26:58.148Z,75.18
2023-01-04T01:29:26.597Z,75.25
2023-01-04T01:31:55.481Z,75.11
2023-01-04T01:34:24.865Z,75.12
2023-01-04T01:36:53.249Z,74.95
2023-01-04T01:39:24.070Z,75.16
2023-01-04T01:41:52.441Z,75.06
2023-01-04T01:44:58.572Z,75.17
2023-01-04T01:47:31.513Z,75.35
2023-01-04T01:50:01.401Z,75.34
2023-01-04T01:52:34.041Z,75.21
2023-01-04T01:55:09.265Z,75.34
2023-01-04T01:57:39.874Z,75.39
2023-01-04T02:00:14.829Z,75.50
2023-01-04T02:02:50.453Z,75.32
2023-01-04T02:05:20.904Z,75.29
2023-01-04T02:07:51.187Z,75.55
2023-01-04T02:10:21.465Z,75.68
2023-01-04T02:12:52.195Z,75.50
2023-01-04T02:15:23.698Z,75.21
2023-01-04T02:18:00.183Z,75.32
2023-01-04T02:20:45.595Z,75.23
2023-01-04T02:24:01.401Z,75.17
2023-01-04T02:26:51.942Z,75.63
2023-01-04T02:30:06.600Z,75.45
2023-01-04T02:32:47.430Z,75.75
2023-01-04T02:35:23.225Z,75.54
2023-01-04T02:37:59.622Z,75.90
2023-01-04T02:40:35.956Z,76.05
2023-01-04T02:43:30.708Z,76.28
2023-01-04T02:46:05.209Z,76.40
2023-01-04T02:48:56.881Z,76.34
2023-01-04T02:51:31.395Z,76.33
2023-01-04T02:54:02.142Z,76.54
2023-01-04T02:56:43.146Z,76.19
2023-01-04T02:59:36.342Z,76.01
2023-01-04T03:02:38.817Z,76.02
2023-01-04T03:05:39.975Z,75.73
2023-01-04T03:08:18.007Z,75.85
2023-01-04T03:10:51.853Z,76.03
2023-01-04T03:13:24.674Z,76.23
2023-01-04T03:15:55.373Z,76.30
2023-01-04T03:18:28.546Z,76.37
2023-01-04T03:21:01.297Z,76.37
2023-01-04T03:23:53.128Z,76.36
2023-01-04T03:26:43.054Z,76.39
2023-01-04T03:29:36.370Z,76.33
2023-01-04T03:32:27.192Z,76.21
2023-01-04T03:35:14.425Z,76.12
2023-01-04T03:37:50.034Z,76.37
2023-01-04T03:40:43.560Z,76.22
2023-01-04T03:43:35.919Z,76.29
2023-01-04T03:46:27.101Z,76.36
2023-01-04T03:49:00.144Z,76.47
2023-01-04T03:51:32.887Z,76.58
2023-01-04T03:54:09.578Z,76.56
2023-01-04T03:56:42.577Z,76.72
2023-01-04T03:59:12.844Z,76.82
2023-01-04T04:01:45.292Z,76.93
2023-01-04T04:04:34.660Z,77.06
2023-01-04T04:07:20.494Z,77.15
2023-01-04T04:09:50.748Z,77.23
2023-01-04T04:12:19.174Z,77.09
2023-01-04T04:14:48.302Z,77.28
2023-01-04T04:17:16.676Z,77.28
2023-01-04T04:19:45.065Z,77.32
2023-01-04T04:22:13.855Z,77.70
2023-01-04T04:24:42.460Z,77.60
2023-01-04T04:27:12.816Z,77.82
2023-01-04T04:29:41.407Z,77.94
2023-01-04T04:32:10.627Z,78.04
2023-01-04T04:34:40.915Z,77.98
2023-01-04T04:37:10.899Z,78.09
2023-01-04T04:39:39.357Z,78.25
2023-01-04T04:42:07.560Z,78.32
2023-01-04T04:44:37.640Z,78.33
2023-01-04T04:47:07.103Z,78.28
2023-01-04T04:49:35.547Z,78.42
2023-01-04T04:52:04.819Z,78.62
2023-01-04T04:54:33.678Z,78.78
2023-01-04T04:57:02.240Z,79.04
2023-01-04T04:59:31.233Z,79.02
2023-01-04T05:02:01.169Z,79.23
2023-01-04T05:04:30.326Z,79.22
2023-01-04T05:06:58.962Z,79.26
2023-01-04T05:09:27.324Z,79.23
2023-01-04T05:12:16.451Z,79.31
2023-01-04T05:14:44.817Z,79.44
2023-01-04T05:17:15.118Z,79.43
2023-01-04T05:19:43.512Z,79.28
2023-01-04T05:22:12.899Z,79.39
2023-01-04T05:24:41.301Z,79.45
2023-01-04T05:27:10.695Z,79.38
2023-01-04T05:29:56.979Z,79.25
2023-01-04T05:32:27.486Z,79.28
2023-01-04T05:34:56.523Z,79.11
2023-01-04T05:37:26.032Z,79.08
2023-01-04T05:39:54.589Z,79.03
2023-01-04T05:42:28.404Z,79.02
2023-01-04T05:44:58.651Z,79.13
2023-01-04T05:47:29.370Z,79.08
2023-01-04T05:49:57.873Z,79.22
2023-01-04T05:52:27.605Z,79.19
2023-01-04T05:54:56.026Z,78.99
2023-01-04T05:57:25.164Z,79.00
2023-01-04T05:59:53.640Z,78.80
2023-01-04T06:02:25.164Z,78.88
2023-01-04T06:04:59.087Z,79.01
2023-01-04T06:07:28.863Z,79.03
2023-01-04T06:09:58.353Z,79.10
2023-01-04T06:12:27.039Z,79.02
2023-01-04T06:14:56.395Z,78.88
2023-01-04T06:17:24.773Z,78.87
2023-01-04T06:19:55.493Z,78.83
2023-01-04T06:22:24.047Z,78.65
2023-01-04T06:24:53.088Z,78.68
2023-01-04T06:27:21.465Z,78.82
2023-01-04T06:29:50.680Z,78.73
2023-01-04T06:32:19.074Z,78.94
2023-01-04T06:34:48.501Z,79.01
2023-01-04T06:37:18.617Z,79.08
2023-01-04T06:39:46.978Z,79.29
2023-01-04T06:42:30.267Z,79.34
2023-01-04T06:44:59.271Z,79.53
2023-01-04T06:47:27.732Z,79.31
2023-01-04T06:49:56.219Z,79.46
2023-01-04T06:52:26.579Z,79.11
2023-01-04T06:54:55.108Z,79.02
2023-01-04T06:57:24.067Z,79.16
2023-01-04T06:59:53.003Z,79.21
2023-01-04T07:02:21.499Z,79.29
2023-01-04T07:04:50.327Z,79.53
2023-01-04T07:07:18.905Z,79.75
2023-01-04T07:09:49.146Z,80.12
2023-01-04T07:12:17.587Z,80.25
2023-01-04T07:14:46.091Z,80.63
2023-01-04T07:17:14.485Z,80.72
2023-01-04T07:19:43.809Z,80.90
2023-01-04T07:22:12.401Z,81.10
2023-01-04T07:24:41.524Z,81.33
2023-01-04T07:27:12.377Z,81.30
2023-01-04T07:29:44.261Z,81.35
2023-01-04T07:32:14.108Z,81.63
2023-01-04T07:34:43.280Z,81.63
2023-01-04T07:37:13.070Z,81.53
2023-01-04T07:39:41.537Z,81.74
2023-01-04T07:42:11.350Z,81.74
2023-01-04T07:44:40.242Z,81.83
2023-01-04T07:47:08.876Z,81.98
2023-01-04T07:49:38.161Z,82.12
2023-01-04T07:52:06.558Z,82.21
2023-01-04T07:54:35.842Z,82.34
2023-01-04T07:57:04.222Z,82.25
2023-01-04T07:59:34.687Z,82.30
2023-01-04T08:02:03.685Z,82.19
2023-01-04T08:04:35.111Z,82.37
2023-01-04T08:07:07.337Z,82.00
2023-01-04T08:09:35.744Z,82.30
2023-01-04T08:12:05.415Z,82.34
2023-01-04T08:14:44.418Z,82.27
2023-01-04T08:17:13.481Z,82.36
2023-01-04T08:19:42.314Z,82.24
2023-01-04T08:22:10.708Z,82.27
2023-01-04T08:24:40.699Z,82.22
2023-01-04T08:27:09.061Z,82.26
2023-01-04T08:29:37.729Z,82.23
2023-01-04T08:32:07.701Z,82.04
2023-01-04T08:34:36.435Z,81.83
2023-01-04T08:37:04.773Z,81.41
2023-01-04T08:39:36.044Z,81.17
2023-01-04T08:42:17.960Z,80.99
2023-01-04T08:44:57.109Z,80.94
2023-01-04T08:47:29.752Z,80.72
2023-01-04T08:49:59.856Z,80.31
2023-01-04T08:52:29.957Z,80.06
2023-01-04T08:54:59.090Z,79.83
2023-01-04T08:57:27.589Z,79.82
2023-01-04T08:59:56.706Z,79.39
2023-01-04T09:02:29.005Z,78.92
2023-01-04T09:05:00.535Z,78.20
2023-01-04T09:07:30.692Z,78.01
2023-01-04T09:10:00.678Z,77.29
2023-01-04T09:12:29.157Z,76.87
2023-01-04T09:14:57.910Z,76.56
2023-01-04T09:17:28.167Z,76.20
2023-01-04T09:19:56.581Z,75.99
2023-01-04T09:22:26.222Z,75.74
2023-01-04T09:24:55.221Z,76.04
2023-01-04T09:27:24.421Z,75.88
2023-01-04T09:29:53.850Z,75.79
2023-01-04T09:32:22.264Z,75.52
2023-01-04T09:34:53.230Z,75.08
2023-01-04T09:37:22.089Z,74.82
2023-01-04T09:39:50.567Z,74.60
2023-01-04T09:42:25.402Z,74.51
2023-01-04T09:47:54.615Z,74.25
2023-01-04T09:50:29.256Z,74.05
2023-01-04T09:53:04.612Z,74.11
2023-01-04T09:55:40.869Z,73.96
2023-01-04T09:58:22.267Z,73.88
2023-01-04T10:00:53.552Z,73.80
2023-01-04T10:03:27.186Z,73.89
2023-01-04T10:05:57.616Z,73.99
2023-01-04T10:08:26.673Z,74.04
2023-01-04T10:11:10.279Z,73.93
2023-01-04T10:13:53.462Z,74.11
2023-01-04T10:17:10.424Z,74.18
2023-01-04T10:22:38.471Z,74.33
2023-01-04T10:25:25.595Z,74.59
2023-01-04T10:28:12.186Z,74.30
2023-01-04T10:30:50.639Z,74.26
2023-01-04T10:33:25.249Z,74.12
2023-01-04T10:35:55.083Z,74.11
2023-01-04T10:38:28.573Z,74.44
2023-01-04T10:41:01.011Z,74.35
2023-01-04T10:44:09.706Z,74.40
2023-01-04T10:46:31.780Z,74.70
2023-01-04T10:49:08.530Z,74.63
2023-01-04T10:51:42.245Z,74.63
2023-01-04T10:54:17.743Z,74.50
2023-01-04T10:56:52.432Z,74.60
2023-01-04T10:59:25.415Z,74.35
2023-01-04T11:02:00.096Z,74.61
2023-01-04T11:04:34.268Z,74.59
2023-01-04T11:07:09.110Z,74.63
2023-01-04T11:09:44.325Z,74.72
2023-01-04T11:12:16.918Z,74.87
2023-01-04T11:14:46.398Z,74.73
2023-01-04T11:17:15.173Z,74.61
2023-01-04T11:19:44.836Z,74.36
2023-01-04T11:22:18.716Z,74.50
2023-01-04T11:25:33.196Z,74.25
2023-01-04T11:27:47.647Z,74.14
2023-01-04T11:30:20.569Z,74.17
2023-01-04T11:32:56.030Z,74.23
2023-01-04T11:35:42.745Z,74.01
2023-01-04T11:38:14.933Z,73.97
2023-01-04T11:40:56.508Z,74.04
2023-01-04T11:43:26.534Z,73.99
2023-01-04T11:46:22.932Z,73.79
2023-01-04T11:48:52.600Z,73.94
2023-01-04T11:51:36.942Z,73.75
2023-01-04T11:54:08.058Z,73.45
2023-01-04T11:56:38.859Z,73.25
2023-01-04T11:59:17.963Z,73.12
2023-01-04T12:01:51.718Z,73.13
2023-01-04T12:04:23.556Z,72.89
2023-01-04T12:06:54.898Z,72.50
2023-01-04T12:09:24.124Z,72.15
2023-01-04T12:11:56.236Z,72.15
2023-01-04T12:14:27.157Z,71.89
2023-01-04T12:17:01.663Z,71.36
2023-01-04T12:19:31.782Z,71.37
2023-01-04T12:22:02.549Z,70.93
2023-01-04T12:24:33.893Z,70.83
2023-01-04T12:27:04.987Z,70.47
2023-01-04T12:29:50.385Z,69.75
2023-01-04T12:32:42.885Z,69.44
2023-01-04T12:36:06.664Z,69.37
2023-01-04T12:39:07.291Z,69.06
2023-01-04T12:42:22.286Z,68.51
2023-01-04T12:45:25.257Z,67.93
2023-01-04T12:48:12.741Z,67.83
2023-01-04T12:51:31.149Z,67.49
2023-01-04T12:54:03.496Z,67.08
2023-01-04T12:57:08.993Z,66.98
2023-01-04T12:59:39.656Z,66.63
2023-01-04T13:02:26.797Z,66.23
2023-01-04T13:05:43.785Z,65.91
2023-01-04T13:07:50.013Z,65.99
2023-01-04T13:10:27.157Z,65.86
2023-01-04T13:13:06.299Z,65.69
2023-01-04T13:15:53.871Z,65.58
2023-01-04T13:18:34.786Z,65.39
2023-01-04T13:21:05.990Z,65.45
2023-01-04T13:23:34.462Z,65.29
2023-01-04T13:26:29.557Z,65.02
2023-01-04T13:29:14.426Z,64.90
2023-01-04T13:31:52.267Z,64.61
2023-01-04T13:34:25.439Z,64.29
2023-01-04T13:36:56.765Z,64.26
2023-01-04T13:39:25.621Z,63.99
2023-01-04T13:41:54.793Z,64.00
2023-01-04T13:45:20.888Z,63.68
2023-01-04T13:47:42.119Z,63.61
2023-01-04T13:50:28.640Z,63.46
2023-01-04T13:53:13.548Z,63.45
2023-01-04T13:55:42.328Z,63.27
2023-01-04T13:58:19.075Z,63.23
2023-01-04T14:00:51.552Z,63.04
2023-01-04T14:03:41.395Z,62.68
2023-01-04T14:06:32.854Z,62.70
2023-01-04T14:09:05.606Z,62.54
2023-01-04T14:12:08.482Z,62.43
2023-01-04T14:14:49.270Z,62.43
2023-01-04T14:17:21.855Z,62.20
2023-01-04T14:19:53.600Z,62.02
2023-01-04T14:22:39.894Z,61.88
2023-01-04T14:25:40.464Z,62.02
2023-01-04T14:28:22.360Z,62.04
2023-01-04T14:30:52.441Z,61.78
2023-01-04T14:33:28.243Z,61.76
2023-01-04T14:36:05.493Z,61.78
2023-01-04T14:38:39.728Z,61.28
2023-01-04T14:41:13.489Z,61.40
2023-01-04T14:43:47.801Z,61.30
2023-01-04T14:46:16.934Z,60.89
2023-01-04T14:48:45.816Z,60.81
2023-01-04T14:51:18.120Z,60.56
2023-01-04T14:53:48.330Z,60.65
2023-01-04T14:56:18.726Z,60.36
2023-01-04T14:58:47.082Z,61.07
2023-01-04T15:01:16.140Z,60.46
2023-01-04T15:03:44.682Z,60.26
2023-01-04T15:06:14.350Z,60.35
2023-01-04T15:08:43.192Z,60.21
2023-01-04T15:11:13.891Z,60.11
2023-01-04T15:13:43.279Z,59.92
2023-01-04T15:16:14.309Z,59.99
2023-01-04T15:18:43.200Z,60.07
2023-01-04T15:21:12.543Z,60.07
2023-01-04T15:23:41.629Z,60.05
2023-01-04T15:26:14.235Z,60.08
2023-01-04T15:28:42.882Z,59.96
2023-01-04T15:31:14.337Z,60.05
2023-01-04T15:33:42.715Z,60.04
2023-01-04T15:36:20.013Z,60.03
2023-01-04T15:38:55.479Z,60.22
2023-01-04T15:41:43.420Z,60.28
2023-01-04T15:44:12.478Z,60.24
2023-01-04T15:46:41.625Z,60.25
2023-01-04T15:49:16.704Z,60.61
2023-01-04T15:51:46.142Z,60.51
2023-01-04T15:54:15.604Z,60.57
2023-01-04T15:56:45.362Z,60.91
2023-01-04T15:59:15.129Z,60.83
2023-01-04T16:01:43.979Z,60.84
2023-01-04T16:04:12.904Z,61.22
2023-01-04T16:06:41.821Z,61.23
2023-01-04T16:09:11.184Z,61.22
2023-01-04T16:12:01.548Z,61.21
2023-01-04T16:14:31.850Z,61.65
2023-01-04T16:17:00.687Z,61.34
2023-01-04T16:19:32.212Z,61.56
2023-01-04T16:22:01.719Z,61.52
2023-01-04T16:25:08.814Z,61.60
2023-01-04T16:27:19.650Z,61.85
2023-01-04T16:29:51.067Z,61.77
2023-01-04T16:32:20.044Z,61.97
2023-01-04T16:34:51.009Z,62.12
2023-01-04T16:37:19.535Z,61.99
2023-01-04T16:40:05.879Z,62.01
2023-01-04T16:42:35.648Z,62.36
2023-01-04T16:45:06.666Z,62.49
2023-01-04T16:47:41.116Z,62.36
2023-01-04T16:50:11.235Z,62.75
2023-01-04T16:52:42.689Z,62.71
2023-01-04T16:55:12.105Z,62.83
2023-01-04T16:57:40.527Z,62.83
2023-01-04T17:00:12.128Z,62.94
2023-01-04T17:02:40.635Z,62.86
2023-01-04T17:05:10.232Z,62.99
2023-01-04T17:07:38.633Z,63.15
2023-01-04T17:10:08.295Z,62.90
2023-01-04T17:12:52.522Z,63.02
2023-01-04T17:18:15.244Z,63.07
2023-01-04T17:20:44.095Z,63.12
2023-01-04T17:23:12.826Z,62.76
2023-01-04T17:25:41.424Z,63.10
2023-01-04T17:28:10.860Z,63.08
2023-01-04T17:30:43.490Z,62.72
2023-01-04T17:33:12.776Z,62.89
2023-01-04T17:35:41.815Z,62.99
2023-01-04T17:38:10.418Z,62.70
2023-01-04T17:40:39.210Z,62.87
2023-01-04T17:43:07.634Z,62.69
2023-01-04T17:45:36.507Z,62.98
2023-01-04T17:48:07.993Z,62.90
2023-01-04T17:50:36.391Z,62.97
2023-01-04T17:53:05.645Z,62.76
2023-01-04T17:55:35.776Z,62.72
2023-01-04T17:58:08.031Z,62.48
2023-01-04T18:00:42.897Z,62.77
2023-01-04T18:03:13.036Z,62.52
2023-01-04T18:05:51.909Z,62.68
2023-01-04T18:08:21.745Z,62.61
2023-01-04T18:11:06.763Z,62.34
2023-01-04T18:16:23.970Z,62.33
2023-01-04T18:18:56.211Z,62.48
2023-01-04T18:21:29.191Z,62.61
2023-01-04T18:29:37.480Z,62.37
2023-01-04T18:32:06.327Z,62.37
2023-01-04T18:34:36.223Z,62.67
2023-01-04T18:37:04.796Z,62.74
2023-01-04T18:39:33.120Z,62.69
2023-01-04T18:42:01.550Z,62.89
2023-01-04T18:44:33.370Z,63.00
2023-01-04T18:47:02.791Z,63.31
2023-01-04T18:49:32.013Z,63.25
2023-01-04T18:52:01.721Z,63.47
2023-01-04T18:54:30.955Z,63.76
2023-01-04T18:57:01.203Z,63.55
2023-01-04T18:59:30.384Z,63.62
2023-01-04T19:02:02.304Z,63.96
2023-01-04T19:04:34.408Z,64.12
2023-01-04T19:07:04.164Z,63.94
2023-01-04T19:09:33.192Z,64.23
2023-01-04T19:12:02.518Z,64.23
2023-01-04T19:14:31.088Z,64.16
2023-01-04T19:16:59.600Z,64.49
2023-01-04T19:19:28.001Z,64.37
2023-01-04T19:21:56.832Z,64.55
2023-01-04T19:24:26.833Z,64.32
2023-01-04T19:27:02.962Z,64.54
2023-01-04T19:29:32.835Z,64.61
2023-01-04T19:32:01.336Z,64.58
2023-01-04T19:34:30.506Z,64.80
2023-01-04T19:36:58.896Z,64.86
2023-01-04T19:39:29.297Z,64.81
2023-01-04T19:41:57.879Z,64.81
2023-01-04T19:44:26.715Z,64.58
2023-01-04T19:46:55.538Z,65.06
2023-01-04T19:49:23.965Z,64.81
2023-01-04T19:51:52.343Z,64.58
2023-01-04T19:54:25.386Z,64.81
2023-01-04T19:56:55.891Z,65.11
2023-01-04T19:59:24.428Z,64.95
2023-01-04T20:01:53.084Z,65.21
2023-01-04T20:04:21.998Z,64.97
2023-01-04T20:06:50.443Z,65.12
2023-01-04T20:09:24.734Z,65.09
2023-01-04T20:11:55.315Z,65.15
2023-01-04T20:14:24.413Z,64.87
2023-01-04T20:16:53.447Z,64.85
2023-01-04T20:19:21.871Z,65.22
2023-01-04T20:21:50.914Z,65.30
2023-01-04T20:24:19.447Z,65.31
2023-01-04T20:26:48.444Z,65.18
2023-01-04T20:29:18.929Z,65.07
2023-01-04T20:31:47.601Z,65.35
2023-01-04T20:34:16.626Z,65.28
2023-01-04T20:36:45.004Z,65.34
2023-01-04T20:39:13.383Z,65.31
2023-01-04T20:42:02.418Z,65.40
2023-01-04T20:44:31.352Z,65.24
2023-01-04T20:46:59.952Z,65.28
2023-01-04T20:49:28.898Z,65.44
2023-01-04T20:51:57.433Z,65.65
2023-01-04T20:54:26.572Z,65.36
2023-01-04T20:56:55.408Z,65.65
2023-01-04T20:59:23.859Z,65.78
2023-01-04T21:01:54.509Z,65.57
2023-01-04T21:04:23.049Z,65.52
2023-01-04T21:06:51.929Z,65.49
2023-01-04T21:09:20.733Z,65.43
2023-01-04T21:11:49.187Z,65.68
2023-01-04T21:14:18.336Z,65.29
2023-01-04T21:16:46.755Z,65.45
2023-01-04T21:19:17.484Z,65.57
2023-01-04T21:21:46.300Z,65.53
2023-01-04T21:24:14.723Z,65.35
2023-01-04T21:26:43.540Z,65.42
2023-01-04T21:29:11.981Z,65.76
2023-01-04T21:31:40.673Z,65.70
2023-01-04T21:34:14.309Z,65.66
2023-01-04T21:36:45.862Z,65.33
2023-01-04T21:39:14.700Z,65.19
2023-01-04T21:41:47.887Z,65.53
2023-01-04T21:44:17.596Z,65.56
2023-01-04T21:46:46.182Z,65.36
2023-01-04T21:49:15.277Z,65.65
2023-01-04T21:51:44.997Z,65.59
2023-01-04T21:54:13.884Z,65.81
2023-01-04T21:56:43.238Z,65.93
2023-01-04T21:59:11.856Z,65.73
2023-01-04T22:01:40.964Z,66.03
2023-01-04T22:04:09.959Z,66.02
2023-01-04T22:06:41.554Z,65.69
2023-01-04T22:09:11.321Z,65.86
2023-01-04T22:11:41.273Z,65.85
2023-01-04T22:14:11.988Z,65.90
2023-01-04T22:16:40.544Z,65.90
2023-01-04T22:19:13.312Z,65.79
2023-01-04T22:21:42.922Z,66.05
2023-01-04T22:24:14.606Z,66.18
2023-01-04T22:26:44.956Z,66.05
2023-01-04T22:29:13.735Z,66.36
2023-01-04T22:31:42.413Z,66.41
2023-01-04T22:34:11.185Z,66.36
2023-01-04T22:36:40.095Z,66.72
2023-01-04T22:39:08.994Z,67.06
2023-01-04T22:41:40.097Z,66.85
2023-01-04T22:44:08.588Z,67.08
2023-01-04T22:46:37.212Z,67.14
2023-01-04T22:49:06.519Z,67.40
2023-01-04T22:51:34.861Z,67.72
2023-01-04T22:54:05.645Z,67.54
2023-01-04T22:56:35.050Z,67.51
2023-01-04T22:59:04.789Z,67.49
2023-01-04T23:01:34.915Z,67.75
2023-01-04T23:04:04.993Z,67.93
2023-01-04T23:06:34.883Z,67.68
2023-01-04T23:09:05.656Z,67.67
2023-01-04T23:11:36.607Z,67.70
2023-01-04T23:14:09.008Z,67.85
2023-01-04T23:16:37.483Z,67.94
2023-01-04T23:19:07.998Z,67.68
2023-01-04T23:21:37.045Z,67.79
2023-01-04T23:24:07.134Z,68.08
2023-01-04T23:26:35.912Z,68.00
2023-01-04T23:29:04.340Z,67.88
2023-01-04T23:31:35.878Z,67.99
2023-01-04T23:34:06.519Z,67.63
2023-01-04T23:36:37.747Z,67.83
2023-01-04T23:39:09.105Z,67.83
2023-01-04T23:41:47.926Z,67.67
2023-01-04T23:44:19.144Z,67.69
2023-01-04T23:46:53.752Z,67.83
2023-01-04T23:49:23.337Z,67.66
2023-01-04T23:51:52.780Z,67.56
2023-01-04T23:54:21.632Z,67.69
2023-01-04T23:56:50.817Z,67.52
2023-01-04T23:59:20.429Z,67.47
